Philipsburg, MT

10:36 AM MDT on September 02, 2015 (GMT -0600)
HADS | | Change Station
CLOSE
Current Station
Personal Weather Station
Location: Hall, MT
Elevation: 4841 ft
Nearby Weather Stations
Active Advisory: Fire Weather Warning

Elev 4841 ft 46.46 °N, 113.24 °W | Updated 51 minutes ago

Clear
Clear
54.0 °F
Feels Like 54.0 °F
N
0.0
Wind Variable Wind from North
Gusts 0.0 mph

Today
High -- | Low -- °F
--% Chance of Precip.
Yesterday
High -- | Low -- °F
Precip. -- in
6:54 AM 8:10 PM
Waning Gibbous, 79% visible
Pressure 29.74 in
Visibility 10.0 miles
Clouds Clear
Dew Point Not available.
Humidity Not available.
Rainfall in
Snow Depth Not available.
UV 3 out of 12
Pollen 8.30 out of 12
Air Quality Not available.
Flu Activity Not available.
METAR KBTM 021553Z AUTO VRB03KT 10SM CLR 14/02 A2988 RMK AO2 SLP071 T01390017
Pressure 29.74 in
Visibility 10.0 miles
Clouds Clear
Dew Point Not available.
Humidity Not available.
Rainfall in
Snow Depth Not available.
UV 3 out of 12
Pollen 8.30 out of 12
Air Quality Not available.
Flu Activity Not available.
METAR KBTM 021553Z AUTO VRB03KT 10SM CLR 14/02 A2988 RMK AO2 SLP071 T01390017

10-Day Weather Forecast

×

Almanac

Astronomy

Sep. 02, 2015 Rise Set
Actual Time
Civil Twilight
Nautical Twilight
Astronomical Twilight
Moon
Length of Visible Light
Length of Day
Tomorrow will be .
, % of the Moon is Illuminated

Today's Extremes

State Highs State Lows

Community

WunderPhotos

Upload Photos

1,851,783 photos uploaded!

WunderBlogs® & News

Nearby

Air Quality

  Air Quality AQ Index Pollutant
Not available.

Snow Depth

Station Depth Elevation

Earthquake Activity

City Distance Mag. Time & Date
Minimum magnitude displayed is 2.5.

Coastal Water Temperatures

Place Temperature

Stations

Nearby Weather Stations

Station Location Temp. Windchill Dew Point Humidity Wind Precip. Elev Updated Type
                   
Fire Weather Warning
Statement as of 10:47 AM MDT on September 01, 2015

... Red flag warning in effect from noon to 9 PM MDT Wednesday for
gusty winds and low humidities across the deerlodge/west
Beaverhead... east Beaverhead...

The National Weather Service in Missoula has issued a red flag
warning for gusty winds and low humidities... which is in effect
from noon to 9 PM MDT Wednesday. The Fire Weather Watch is no
longer in effect.

* Winds: southwest 20-25 mph with gusts to 40 mph, especially on
ridgetops and any exposed terrain.

* Minimum humidities: 12-20 percent.

* Timing: winds will begin to develop ahead of an approaching cold
front around noon... peaking in the late afternoon and early
evening when humidity will be lowest.